createdAt,value
2022-11-01T00:03:26.259Z,80.48
2022-11-01T00:08:22.387Z,81.51
2022-11-01T00:13:42.675Z,82.73
2022-11-01T00:18:57.688Z,83.48
2022-11-01T00:23:54.183Z,84.32
2022-11-01T00:28:54.542Z,86.15
2022-11-01T00:33:49.864Z,85.53
2022-11-01T00:38:44.713Z,84.37
2022-11-01T00:43:38.306Z,82.64
2022-11-01T00:48:32.047Z,82.95
2022-11-01T00:53:26.789Z,82.31
2022-11-01T00:58:21.680Z,82.37
2022-11-01T01:03:14.933Z,81.47
2022-11-01T01:08:08.304Z,81.52
2022-11-01T01:13:01.844Z,82.40
2022-11-01T01:17:56.675Z,82.96
2022-11-01T01:22:50.246Z,83.16
2022-11-01T01:27:43.472Z,84.51
2022-11-01T01:32:37.566Z,83.00
2022-11-01T01:37:32.234Z,81.99
2022-11-01T01:42:30.722Z,82.73
2022-11-01T01:47:27.479Z,83.85
2022-11-01T01:52:21.491Z,84.65
2022-11-01T01:57:16.506Z,83.76
2022-11-01T02:02:09.949Z,83.82
2022-11-01T02:07:03.564Z,83.05
2022-11-01T02:11:56.888Z,82.15
2022-11-01T02:17:00.034Z,82.02
2022-11-01T02:22:02.830Z,82.45
2022-11-01T02:27:10.413Z,82.92
2022-11-01T02:32:18.530Z,83.59
2022-11-01T02:37:16.337Z,84.73
2022-11-01T02:42:15.826Z,85.47
2022-11-01T02:47:12.331Z,84.06
2022-11-01T02:52:08.408Z,82.97
2022-11-01T02:57:08.092Z,81.38
2022-11-01T03:02:08.636Z,77.26
2022-11-01T03:07:08.190Z,78.30
2022-11-01T03:12:07.019Z,80.00
2022-11-01T03:17:04.123Z,81.33
2022-11-01T03:22:06.871Z,82.37
2022-11-01T03:27:05.237Z,83.13
2022-11-01T03:32:00.408Z,83.25
2022-11-01T03:36:57.767Z,82.47
2022-11-01T03:41:57.511Z,82.83
2022-11-01T03:46:51.730Z,82.76
2022-11-01T03:51:45.070Z,82.55
2022-11-01T03:56:40.667Z,81.85
2022-11-01T04:01:35.855Z,82.07
2022-11-01T04:06:29.462Z,82.87
2022-11-01T04:11:22.726Z,83.38
2022-11-01T04:16:33.598Z,83.83
2022-11-01T04:21:28.064Z,83.60
2022-11-01T04:26:22.626Z,84.03
2022-11-01T04:31:16.091Z,84.33
2022-11-01T04:36:10.375Z,84.42
2022-11-01T04:41:05.106Z,84.87
2022-11-01T04:46:00.457Z,85.11
2022-11-01T04:50:56.391Z,85.12
2022-11-01T04:56:12.864Z,85.56
2022-11-01T05:01:16.228Z,86.13
2022-11-01T05:06:15.584Z,85.23
2022-11-01T05:11:32.834Z,84.83
2022-11-01T05:16:27.797Z,85.00
2022-11-01T05:21:23.827Z,85.21
2022-11-01T05:26:17.463Z,86.17
2022-11-01T05:31:17.428Z,86.02
2022-11-01T05:36:13.429Z,86.79
2022-11-01T05:46:12.854Z,87.34
2022-11-01T05:51:06.524Z,87.09
2022-11-01T05:56:13.708Z,86.97
2022-11-01T06:01:12.447Z,84.26
2022-11-01T06:06:06.795Z,83.60
2022-11-01T06:11:22.886Z,81.68
2022-11-01T06:16:31.517Z,80.76
2022-11-01T06:21:55.664Z,81.30
2022-11-01T06:27:57.510Z,81.68
2022-11-01T06:33:17.386Z,82.08
2022-11-01T06:38:37.967Z,82.25
2022-11-01T06:43:49.327Z,82.48
2022-11-01T06:49:51.421Z,82.55
2022-11-01T07:02:14.548Z,82.37
2022-11-01T07:08:00.381Z,82.50
2022-11-01T07:13:33.911Z,81.74
2022-11-01T07:19:01.049Z,80.91
2022-11-01T07:37:04.616Z,78.78
2022-11-01T07:42:38.445Z,78.23
2022-11-01T07:47:56.341Z,77.81
2022-11-01T07:53:12.536Z,76.86
2022-11-01T07:58:11.680Z,75.95
2022-11-01T08:15:06.126Z,74.11
2022-11-01T08:20:18.551Z,73.41
2022-11-01T08:25:19.144Z,72.18
2022-11-01T08:30:18.153Z,71.38
2022-11-01T08:35:19.505Z,69.96
2022-11-01T08:40:13.758Z,69.02
2022-11-01T08:45:09.225Z,67.87
2022-11-01T08:50:07.135Z,67.95
2022-11-01T08:55:38.636Z,65.80
2022-11-01T09:00:36.770Z,61.89
2022-11-01T09:05:40.108Z,58.03
2022-11-01T09:10:56.685Z,56.33
2022-11-01T09:22:05.215Z,54.86
2022-11-01T09:27:08.781Z,55.86
2022-11-01T09:32:19.668Z,54.49
2022-11-01T09:37:15.873Z,54.25
2022-11-01T09:42:16.557Z,54.29
2022-11-01T09:47:17.675Z,54.20
2022-11-01T09:53:18.577Z,53.72
2022-11-01T10:05:29.141Z,53.41
2022-11-01T10:10:44.601Z,53.48
2022-11-01T10:15:50.957Z,53.96
2022-11-01T10:21:09.408Z,53.93
2022-11-01T10:26:20.909Z,52.87
2022-11-01T10:31:23.134Z,51.21
2022-11-01T10:36:25.083Z,51.97
2022-11-01T10:41:30.028Z,52.02
2022-11-01T10:46:35.101Z,51.12
2022-11-01T10:51:34.978Z,51.22
2022-11-01T10:56:41.033Z,50.28
2022-11-01T11:01:43.899Z,49.94
2022-11-01T11:11:59.474Z,49.50
2022-11-01T11:16:59.596Z,49.79
2022-11-01T11:22:04.764Z,49.48
2022-11-01T11:27:31.355Z,50.04
2022-11-01T11:32:41.423Z,50.53
2022-11-01T11:38:14.096Z,50.71
2022-11-01T11:43:42.745Z,50.38
2022-11-01T11:49:38.133Z,51.13
2022-11-01T11:54:57.954Z,51.84
2022-11-01T11:59:56.899Z,50.95
2022-11-01T12:04:57.500Z,51.85
2022-11-01T12:10:00.389Z,51.48
2022-11-01T12:14:58.399Z,51.57
2022-11-01T12:20:02.417Z,51.77
2022-11-01T12:25:05.423Z,51.99
2022-11-01T12:30:05.290Z,51.82
2022-11-01T12:35:08.984Z,52.08
2022-11-01T12:40:21.910Z,52.01
2022-11-01T12:45:30.524Z,51.34
2022-11-01T12:50:42.578Z,51.04
2022-11-01T12:56:01.860Z,51.00
2022-11-01T13:01:35.814Z,49.79
2022-11-01T13:07:00.920Z,50.35
2022-11-01T13:12:08.438Z,49.53
2022-11-01T13:17:11.226Z,50.46
2022-11-01T13:22:19.438Z,50.62
2022-11-01T13:27:20.083Z,51.73
2022-11-01T13:32:22.524Z,51.51
2022-11-01T13:37:35.726Z,51.13
2022-11-01T13:42:38.159Z,51.08
2022-11-01T13:48:08.708Z,51.49
2022-11-01T13:53:11.456Z,52.21
2022-11-01T13:58:08.420Z,52.40
2022-11-01T14:03:22.905Z,52.87
2022-11-01T14:08:30.903Z,52.91
2022-11-01T14:13:50.216Z,53.53
2022-11-01T14:19:20.117Z,53.76
2022-11-01T14:24:33.555Z,54.12
2022-11-01T14:29:36.314Z,53.96
2022-11-01T14:34:39.722Z,54.71
2022-11-01T14:39:40.243Z,55.13
2022-11-01T14:44:40.596Z,55.67
2022-11-01T14:49:49.247Z,55.84
2022-11-01T14:54:55.113Z,56.46
2022-11-01T14:59:55.434Z,57.04
2022-11-01T15:04:50.846Z,57.79
2022-11-01T15:10:06.246Z,58.54
2022-11-01T15:15:05.174Z,59.72
2022-11-01T15:20:00.218Z,60.23
2022-11-01T15:25:00.464Z,61.06
2022-11-01T15:29:57.059Z,61.95
2022-11-01T15:35:07.582Z,62.38
2022-11-01T15:40:34.524Z,62.63
2022-11-01T15:45:46.043Z,63.09
2022-11-01T15:50:53.954Z,63.09
2022-11-01T15:56:07.065Z,63.42
2022-11-01T16:01:04.426Z,64.07
2022-11-01T16:06:19.979Z,64.18
2022-11-01T16:11:29.741Z,64.61
2022-11-01T16:17:02.284Z,64.61
2022-11-01T16:22:06.734Z,65.04
2022-11-01T16:27:43.478Z,65.11
2022-11-01T16:33:13.714Z,65.07
2022-11-01T16:44:44.266Z,65.95
2022-11-01T17:00:00.790Z,67.33
2022-11-01T17:05:41.572Z,68.01
2022-11-01T17:10:49.673Z,69.34
2022-11-01T17:16:33.212Z,69.75
2022-11-01T17:21:50.884Z,70.65
2022-11-01T17:27:01.669Z,71.58
2022-11-01T17:38:12.527Z,72.20
2022-11-01T17:43:25.938Z,72.62
2022-11-01T17:49:27.647Z,72.93
2022-11-01T17:55:09.942Z,72.87
2022-11-01T18:00:25.862Z,73.08
2022-11-01T18:05:22.733Z,73.22
2022-11-01T18:10:37.847Z,74.03
2022-11-01T18:15:49.084Z,74.21
2022-11-01T18:21:10.517Z,74.02
2022-11-01T18:26:31.453Z,74.01
2022-11-01T18:31:39.403Z,73.93
2022-11-01T18:43:24.199Z,74.95
2022-11-01T18:54:53.567Z,75.69
2022-11-01T19:00:15.196Z,75.78
2022-11-01T19:05:23.290Z,76.22
2022-11-01T19:10:26.665Z,75.80
2022-11-01T19:15:34.964Z,75.42
2022-11-01T19:20:58.260Z,75.93
2022-11-01T19:26:09.305Z,76.45
2022-11-01T19:31:21.849Z,75.84
2022-11-01T19:36:40.888Z,75.81
2022-11-01T19:41:59.312Z,76.50
2022-11-01T19:47:43.818Z,76.79
2022-11-01T19:52:48.584Z,77.64
2022-11-01T19:58:55.327Z,78.02
2022-11-01T20:09:58.618Z,78.75
2022-11-01T20:22:20.981Z,79.76
2022-11-01T20:28:13.518Z,79.82
2022-11-01T20:33:51.618Z,79.17
2022-11-01T20:38:56.549Z,79.11
2022-11-01T20:45:11.307Z,79.15
2022-11-01T20:50:26.714Z,78.69
2022-11-01T20:56:01.172Z,78.02
2022-11-01T21:01:50.057Z,77.38
2022-11-01T21:07:21.916Z,77.89
2022-11-01T21:12:44.592Z,77.80
2022-11-01T21:17:43.357Z,77.88
2022-11-01T21:22:46.969Z,78.34
2022-11-01T21:27:58.843Z,78.59
2022-11-01T21:33:56.816Z,78.46
2022-11-01T21:39:05.107Z,78.96
2022-11-01T21:44:32.254Z,78.89
2022-11-01T21:49:32.235Z,79.01
2022-11-01T21:54:43.348Z,79.05
2022-11-01T21:59:43.846Z,79.44
2022-11-01T22:04:41.132Z,79.59
2022-11-01T22:10:17.724Z,79.99
2022-11-01T22:14:59.269Z,80.59
2022-11-01T22:25:44.553Z,81.13
2022-11-01T22:30:46.096Z,81.36
2022-11-01T22:35:45.346Z,81.83
2022-11-01T22:40:41.082Z,81.89
2022-11-01T22:45:43.244Z,81.87
2022-11-01T22:50:41.422Z,81.77
2022-11-01T22:55:44.396Z,82.00
2022-11-01T23:00:39.196Z,81.73
2022-11-01T23:05:35.653Z,81.61
2022-11-01T23:10:36.550Z,81.39
2022-11-01T23:15:31.553Z,81.65
2022-11-01T23:20:25.017Z,80.71
2022-11-01T23:25:18.550Z,80.14
2022-11-01T23:30:14.247Z,79.26
2022-11-01T23:35:15.879Z,78.42
2022-11-01T23:40:16.505Z,77.72
2022-11-01T23:45:22.522Z,77.94
2022-11-01T23:50:21.745Z,77.51
2022-11-01T23:55:21.038Z,77.70
